Tuttle, North Dakota
Current Conditions -  °F | °C
As of 9:35 AM on Friday 19 Dec 2014 (Local Time) from K5H4 Reporting Station
Haze Haze  
Wind Chill: 17°   Ceiling: 200
Heat Index: 25°   Visibility: 2.5mi
Dew Point: 25°   Wind: 7mph
Humidity: 100%   Direction: 210°SSW
Pressure: 29.95"   Gusts: NA
Location:  47.14°N, 99.99°W
Report Text: K5H4 191535Z AUTO 21006KT 2 1/2SM BR OVC002 M04/M04 A2995 RMK AO2
Loading
Personal Weather Stations






























Interactive Weather Map New forecast layout! Learn more

10-Day Weather Forecast

Advertisements
Track Severe Weather on mobile